createdAt,value
2018-08-11T00:00:18.183Z,1022.5
2018-08-11T00:01:19.917Z,1022.4
2018-08-11T00:02:21.619Z,1022.4
2018-08-11T00:03:23.359Z,1022.4
2018-08-11T00:04:25.051Z,1022.4
2018-08-11T00:05:26.741Z,1022.4
2018-08-11T00:06:28.439Z,1022.5
2018-08-11T00:07:30.153Z,1022.4
2018-08-11T00:08:31.898Z,1022.4
2018-08-11T00:09:33.629Z,1022.4
2018-08-11T00:10:35.345Z,1022.4
2018-08-11T00:11:37.042Z,1022.4
2018-08-11T00:12:38.794Z,1022.4
2018-08-11T00:13:41.398Z,1022.4
2018-08-11T00:14:43.123Z,1022.4
2018-08-11T00:15:44.861Z,1022.4
2018-08-11T00:16:46.593Z,1022.4
2018-08-11T00:17:48.273Z,1022.4
2018-08-11T00:18:50.903Z,1022.4
2018-08-11T00:19:52.593Z,1022.4
2018-08-11T00:20:54.330Z,1022.4
2018-08-11T00:21:56.022Z,1022.3
2018-08-11T00:22:57.731Z,1022.3
2018-08-11T00:23:59.461Z,1022.3
2018-08-11T00:25:01.182Z,1022.3
2018-08-11T00:26:02.866Z,1022.3
2018-08-11T00:27:04.552Z,1022.2
2018-08-11T00:28:06.255Z,1022.3
2018-08-11T00:29:07.976Z,1022.3
2018-08-11T00:30:09.718Z,1022.3
2018-08-11T00:31:11.430Z,1022.3
2018-08-11T00:32:13.150Z,1022.3
2018-08-11T00:33:14.858Z,1022.3
2018-08-11T00:34:16.589Z,1022.3
2018-08-11T00:35:18.307Z,1022.2
2018-08-11T00:36:20.084Z,1022.3
2018-08-11T00:37:21.772Z,1022.3
2018-08-11T00:38:23.482Z,1022.2
2018-08-11T00:39:25.209Z,1022.2
2018-08-11T00:40:26.962Z,1022.2
2018-08-11T00:41:28.711Z,1022.1
2018-08-11T00:42:30.390Z,1022.2
2018-08-11T00:43:32.114Z,1022.1
2018-08-11T00:44:33.844Z,1022.1
2018-08-11T00:45:35.545Z,1022.0
2018-08-11T00:46:37.278Z,1022.1
2018-08-11T00:47:39.016Z,1022.0
2018-08-11T00:48:40.733Z,1022.1
2018-08-11T00:49:42.423Z,1022.0
2018-08-11T00:50:44.165Z,1022.0
2018-08-11T00:51:45.854Z,1022.0
2018-08-11T00:52:47.601Z,1022.0
2018-08-11T00:53:49.305Z,1022.0
2018-08-11T00:54:51.005Z,1022.0
2018-08-11T00:55:52.707Z,1022.0
2018-08-11T00:56:54.444Z,1022.0
2018-08-11T00:57:56.148Z,1022.0
2018-08-11T00:58:57.835Z,1021.9
2018-08-11T00:59:59.540Z,1022.0
2018-08-11T01:01:01.215Z,1022.0
2018-08-11T01:02:02.933Z,1022.0
2018-08-11T01:03:04.625Z,1022.0
2018-08-11T01:04:06.329Z,1021.9
2018-08-11T01:05:08.063Z,1021.9
2018-08-11T01:06:09.744Z,1021.9
2018-08-11T01:07:11.435Z,1021.9
2018-08-11T01:08:13.157Z,1021.9
2018-08-11T01:09:14.830Z,1021.9
2018-08-11T01:10:16.574Z,1021.8
2018-08-11T01:11:18.308Z,1021.8
2018-08-11T01:12:20.019Z,1021.8
2018-08-11T01:13:21.786Z,1021.8
2018-08-11T01:14:23.477Z,1021.8
2018-08-11T01:15:25.203Z,1021.8
2018-08-11T01:16:26.888Z,1021.8
2018-08-11T01:17:28.571Z,1021.8
2018-08-11T01:18:30.279Z,1021.8
2018-08-11T01:19:31.986Z,1021.7
2018-08-11T01:20:33.711Z,1021.7
2018-08-11T01:21:35.404Z,1021.6
2018-08-11T01:22:37.131Z,1021.7
2018-08-11T01:23:38.853Z,1021.6
2018-08-11T01:24:40.544Z,1021.7
2018-08-11T01:25:42.235Z,1021.6
2018-08-11T01:26:43.979Z,1021.6
2018-08-11T01:27:45.688Z,1021.6
2018-08-11T01:28:47.406Z,1021.6
2018-08-11T01:29:49.141Z,1021.6
2018-08-11T01:30:50.831Z,1021.6
2018-08-11T01:31:52.588Z,1021.6
2018-08-11T01:32:54.280Z,1021.5
2018-08-11T01:33:55.974Z,1021.5
2018-08-11T01:34:57.687Z,1021.5
2018-08-11T01:35:59.381Z,1021.5
2018-08-11T01:37:01.083Z,1021.4
2018-08-11T01:38:02.819Z,1021.5
2018-08-11T01:39:04.554Z,1021.4
2018-08-11T01:40:06.319Z,1021.5
2018-08-11T01:41:08.033Z,1021.4
2018-08-11T01:42:09.736Z,1021.4
2018-08-11T01:43:11.449Z,1021.5
2018-08-11T01:44:13.265Z,1021.4
2018-08-11T01:45:14.925Z,1021.4
2018-08-11T01:46:16.664Z,1021.4
2018-08-11T01:47:18.384Z,1021.4
2018-08-11T01:48:20.097Z,1021.4
2018-08-11T01:49:21.810Z,1021.4
2018-08-11T01:50:23.545Z,1021.4
2018-08-11T01:51:25.260Z,1021.4
2018-08-11T01:52:26.976Z,1021.4
2018-08-11T01:53:28.726Z,1021.4
2018-08-11T01:54:30.418Z,1021.4
2018-08-11T01:55:32.141Z,1021.5
2018-08-11T01:56:33.868Z,1021.4
2018-08-11T01:57:35.584Z,1021.5
2018-08-11T01:58:37.302Z,1021.5
2018-08-11T01:59:38.995Z,1021.4
2018-08-11T02:00:40.700Z,1021.5
2018-08-11T02:01:42.407Z,1021.5
2018-08-11T02:02:44.131Z,1021.4
2018-08-11T02:03:45.863Z,1021.5
2018-08-11T02:04:47.602Z,1021.5
2018-08-11T02:05:49.305Z,1021.5
2018-08-11T02:06:51.018Z,1021.5
2018-08-11T02:07:52.727Z,1021.5
2018-08-11T02:08:54.416Z,1021.5
2018-08-11T02:09:56.141Z,1021.5
2018-08-11T02:10:57.858Z,1021.5
2018-08-11T02:11:59.585Z,1021.4
2018-08-11T02:13:01.292Z,1021.4
2018-08-11T02:14:03.025Z,1021.4
2018-08-11T02:15:04.751Z,1021.4
2018-08-11T02:16:06.467Z,1021.4
2018-08-11T02:17:08.156Z,1021.3
2018-08-11T02:18:09.852Z,1021.3
2018-08-11T02:19:11.551Z,1021.3
2018-08-11T02:20:13.289Z,1021.3
2018-08-11T02:21:14.975Z,1021.3
2018-08-11T02:22:16.694Z,1021.3
2018-08-11T02:23:18.398Z,1021.3
2018-08-11T02:24:20.110Z,1021.3
2018-08-11T02:25:21.837Z,1021.3
2018-08-11T02:26:23.558Z,1021.3
2018-08-11T02:27:25.279Z,1021.3
2018-08-11T02:28:26.994Z,1021.3
2018-08-11T02:29:28.734Z,1021.3
2018-08-11T02:30:30.431Z,1021.3
2018-08-11T02:31:32.151Z,1021.3
2018-08-11T02:32:33.862Z,1021.3
2018-08-11T02:33:35.575Z,1021.2
2018-08-11T02:34:37.279Z,1021.2
2018-08-11T02:35:39.000Z,1021.3
2018-08-11T02:36:40.713Z,1021.2
2018-08-11T02:37:42.430Z,1021.3
2018-08-11T02:38:44.145Z,1021.3
2018-08-11T02:39:45.914Z,1021.2
2018-08-11T02:40:47.575Z,1021.2
2018-08-11T02:41:49.258Z,1021.2
2018-08-11T02:42:50.964Z,1021.2
2018-08-11T02:43:52.693Z,1021.2
2018-08-11T02:44:54.420Z,1021.2
2018-08-11T02:45:56.149Z,1021.2
2018-08-11T02:46:57.861Z,1021.2
2018-08-11T02:47:59.600Z,1021.3
2018-08-11T02:49:01.316Z,1021.3
2018-08-11T02:50:03.014Z,1021.2
2018-08-11T02:51:04.724Z,1021.2
2018-08-11T02:52:06.402Z,1021.2
2018-08-11T02:53:08.126Z,1021.2
2018-08-11T02:54:09.846Z,1021.2
2018-08-11T02:55:11.584Z,1021.2
2018-08-11T02:56:13.278Z,1021.2
2018-08-11T02:57:14.981Z,1021.2
2018-08-11T02:58:16.680Z,1021.2
2018-08-11T02:59:18.404Z,1021.2
2018-08-11T03:00:20.126Z,1021.2
2018-08-11T03:01:21.817Z,1021.2
2018-08-11T03:02:23.511Z,1021.2
2018-08-11T03:03:25.219Z,1021.2
2018-08-11T03:04:26.945Z,1021.1
2018-08-11T03:05:28.666Z,1021.1
2018-08-11T03:06:30.408Z,1021.1
2018-08-11T03:07:32.150Z,1021.2
2018-08-11T03:08:33.896Z,1021.2
2018-08-11T03:09:35.602Z,1021.1
2018-08-11T03:10:37.334Z,1021.2
2018-08-11T03:11:39.055Z,1021.2
2018-08-11T03:12:40.750Z,1021.2
2018-08-11T03:13:42.486Z,1021.2
2018-08-11T03:14:44.232Z,1021.2
2018-08-11T03:15:45.940Z,1021.1
2018-08-11T03:16:47.665Z,1021.1
2018-08-11T03:17:49.400Z,1021.2
2018-08-11T03:18:51.113Z,1021.1
2018-08-11T03:19:52.800Z,1021.1
2018-08-11T03:20:54.539Z,1021.1
2018-08-11T03:21:56.257Z,1021.1
2018-08-11T03:22:57.955Z,1021.1
2018-08-11T03:23:59.686Z,1021.1
2018-08-11T03:25:01.380Z,1021.1
2018-08-11T03:26:03.088Z,1021.1
2018-08-11T03:27:04.777Z,1021.1
2018-08-11T03:28:06.500Z,1021.1
2018-08-11T03:29:08.188Z,1021.1
2018-08-11T03:30:09.937Z,1021.1
2018-08-11T03:31:11.649Z,1021.1
2018-08-11T03:32:13.369Z,1021.1
2018-08-11T03:33:15.058Z,1021.1
2018-08-11T03:34:16.803Z,1021.1
2018-08-11T03:35:18.494Z,1021.1
2018-08-11T03:36:20.210Z,1021.1
2018-08-11T03:37:21.917Z,1021.1
2018-08-11T03:38:23.644Z,1021.1
2018-08-11T03:39:25.396Z,1021.1
2018-08-11T03:40:27.089Z,1021.1
2018-08-11T03:41:28.806Z,1021.1
2018-08-11T03:42:30.522Z,1021.1
2018-08-11T03:43:32.240Z,1021.1
2018-08-11T03:44:33.931Z,1021.1
2018-08-11T03:45:35.622Z,1021.1
2018-08-11T03:46:37.350Z,1021.1
2018-08-11T03:47:39.122Z,1021.0
2018-08-11T03:48:40.833Z,1021.0
2018-08-11T03:49:42.570Z,1021.0
2018-08-11T03:50:44.253Z,1021.0
2018-08-11T03:51:45.962Z,1021.0
2018-08-11T03:52:47.706Z,1021.0
2018-08-11T03:53:49.436Z,1021.0
2018-08-11T03:54:51.135Z,1021.0
2018-08-11T03:55:52.852Z,1021.0
2018-08-11T03:56:54.671Z,1021.0
2018-08-11T03:57:56.370Z,1021.0
2018-08-11T03:58:58.083Z,1021.0
2018-08-11T03:59:59.823Z,1021.0
2018-08-11T04:01:01.521Z,1021.0
2018-08-11T04:02:03.231Z,1021.0
2018-08-11T04:03:04.978Z,1021.0
2018-08-11T04:04:06.701Z,1021.0
2018-08-11T04:05:08.421Z,1021.0
2018-08-11T04:06:10.101Z,1020.9
2018-08-11T04:07:11.866Z,1021.0
2018-08-11T04:08:13.578Z,1021.0
2018-08-11T04:09:15.299Z,1021.0
2018-08-11T04:10:17.017Z,1021.0
2018-08-11T04:11:18.718Z,1021.0
2018-08-11T04:12:20.402Z,1021.0
2018-08-11T04:13:22.089Z,1021.0
2018-08-11T04:14:23.791Z,1021.0
2018-08-11T04:15:25.492Z,1021.0
2018-08-11T04:16:27.211Z,1021.0
2018-08-11T04:17:28.950Z,1021.0
2018-08-11T04:18:30.648Z,1021.0
2018-08-11T04:19:32.327Z,1021.0
2018-08-11T04:20:34.021Z,1021.0
2018-08-11T04:21:35.714Z,1021.0
2018-08-11T04:22:37.443Z,1021.0
2018-08-11T04:23:39.133Z,1021.0
2018-08-11T04:24:40.870Z,1021.0
2018-08-11T04:25:42.606Z,1020.9
2018-08-11T04:26:44.970Z,1020.9
2018-08-11T04:27:46.724Z,1021.0
2018-08-11T04:28:48.405Z,1021.0
2018-08-11T04:29:50.144Z,1021.0
2018-08-11T04:30:51.867Z,1021.0
2018-08-11T04:31:53.625Z,1021.0
2018-08-11T04:32:55.325Z,1021.0
2018-08-11T04:33:57.063Z,1021.0
2018-08-11T04:34:58.800Z,1020.9
2018-08-11T04:36:00.495Z,1021.0
2018-08-11T04:37:02.195Z,1021.0
2018-08-11T04:38:03.918Z,1020.9
2018-08-11T04:39:05.650Z,1020.9
2018-08-11T04:40:07.445Z,1020.9
2018-08-11T04:41:09.183Z,1020.9
2018-08-11T04:42:10.892Z,1020.9
2018-08-11T04:43:12.587Z,1020.9
2018-08-11T04:44:14.308Z,1020.9
2018-08-11T04:45:16.005Z,1021.0
2018-08-11T04:46:17.709Z,1020.9
2018-08-11T04:47:19.427Z,1020.9
2018-08-11T04:48:21.165Z,1020.9
2018-08-11T04:49:22.860Z,1020.9
2018-08-11T04:50:24.554Z,1020.9
2018-08-11T04:51:26.270Z,1020.9
2018-08-11T04:52:27.967Z,1020.9
2018-08-11T04:53:29.682Z,1020.9
2018-08-11T04:54:31.447Z,1020.9
2018-08-11T04:55:33.150Z,1020.9
2018-08-11T04:56:34.874Z,1020.9
2018-08-11T04:57:36.600Z,1020.9
2018-08-11T04:58:38.296Z,1020.9
2018-08-11T04:59:40.017Z,1020.9
2018-08-11T05:00:41.757Z,1020.9
2018-08-11T05:01:43.463Z,1020.9
2018-08-11T05:02:45.198Z,1020.9
2018-08-11T05:03:46.935Z,1020.9
2018-08-11T05:04:48.657Z,1020.9
2018-08-11T05:05:50.405Z,1020.9
2018-08-11T05:06:52.121Z,1020.9
2018-08-11T05:07:53.813Z,1020.9
2018-08-11T05:08:55.490Z,1020.9
2018-08-11T05:09:57.211Z,1020.9
2018-08-11T05:10:58.912Z,1020.9
2018-08-11T05:12:00.649Z,1020.9
2018-08-11T05:13:02.364Z,1020.9
2018-08-11T05:14:04.042Z,1020.9
2018-08-11T05:15:05.799Z,1021.0
2018-08-11T05:16:07.480Z,1021.0
2018-08-11T05:17:09.187Z,1020.9
2018-08-11T05:18:10.874Z,1020.9
2018-08-11T05:19:12.567Z,1021.0
2018-08-11T05:20:14.291Z,1021.0
2018-08-11T05:21:16.006Z,1021.0
2018-08-11T05:22:17.735Z,1021.0
2018-08-11T05:23:19.468Z,1021.0
2018-08-11T05:24:21.181Z,1021.0
2018-08-11T05:25:22.869Z,1021.0
2018-08-11T05:26:24.718Z,1021.0
2018-08-11T05:27:26.314Z,1021.0
2018-08-11T05:28:28.009Z,1020.9
2018-08-11T05:29:29.765Z,1020.9
2018-08-11T05:30:31.488Z,1020.9
2018-08-11T05:31:33.185Z,1020.9
2018-08-11T05:32:34.873Z,1020.9
2018-08-11T05:33:36.622Z,1020.9
2018-08-11T05:34:38.326Z,1020.9
2018-08-11T05:35:40.024Z,1020.9
2018-08-11T05:36:41.757Z,1020.9
2018-08-11T05:37:43.460Z,1020.9
2018-08-11T05:38:45.197Z,1021.0
2018-08-11T05:39:46.898Z,1021.0
2018-08-11T05:40:48.612Z,1021.1
2018-08-11T05:41:50.332Z,1021.0
2018-08-11T05:42:52.075Z,1021.0
2018-08-11T05:43:53.781Z,1021.1
2018-08-11T05:44:55.470Z,1021.1
2018-08-11T05:45:57.150Z,1021.1
2018-08-11T05:46:58.866Z,1021.1
2018-08-11T05:48:00.628Z,1021.1
2018-08-11T05:49:02.334Z,1021.1
2018-08-11T05:50:04.041Z,1021.0
2018-08-11T05:51:05.743Z,1021.0
2018-08-11T05:52:07.453Z,1021.0
2018-08-11T05:53:09.144Z,1021.0
2018-08-11T05:54:10.850Z,1021.0
2018-08-11T05:55:12.606Z,1021.0
2018-08-11T05:56:14.342Z,1021.0
2018-08-11T05:57:16.049Z,1021.0
2018-08-11T05:58:17.765Z,1021.0
2018-08-11T05:59:19.476Z,1021.0
2018-08-11T06:00:21.195Z,1021.0
2018-08-11T06:01:22.926Z,1021.0
2018-08-11T06:02:24.617Z,1021.0
2018-08-11T06:03:26.304Z,1021.0
2018-08-11T06:04:27.995Z,1021.0
2018-08-11T06:05:29.731Z,1021.0
2018-08-11T06:06:31.423Z,1021.0
2018-08-11T06:07:33.122Z,1021.0
2018-08-11T06:08:34.842Z,1021.0
2018-08-11T06:09:36.547Z,1020.9
2018-08-11T06:10:38.333Z,1020.9
2018-08-11T06:11:39.941Z,1021.0
2018-08-11T06:12:41.664Z,1021.0
2018-08-11T06:13:43.360Z,1021.0
2018-08-11T06:14:45.079Z,1021.0
2018-08-11T06:15:46.760Z,1021.1
2018-08-11T06:16:48.458Z,1021.0
2018-08-11T06:17:50.164Z,1021.0
2018-08-11T06:18:51.934Z,1021.0
2018-08-11T06:19:53.672Z,1021.0
2018-08-11T06:20:55.419Z,1021.0
2018-08-11T06:21:57.145Z,1021.1
2018-08-11T06:22:58.872Z,1021.0
2018-08-11T06:24:00.603Z,1021.0
2018-08-11T06:25:02.317Z,1021.1
2018-08-11T06:26:04.038Z,1021.1
2018-08-11T06:27:05.748Z,1021.1
2018-08-11T06:28:07.446Z,1021.1
2018-08-11T06:29:09.146Z,1021.2
2018-08-11T06:30:10.840Z,1021.1
2018-08-11T06:31:12.580Z,1021.1
2018-08-11T06:32:14.289Z,1021.1
2018-08-11T06:33:15.983Z,1021.1
2018-08-11T06:34:17.713Z,1021.1
2018-08-11T06:35:19.444Z,1021.1
2018-08-11T06:36:21.144Z,1021.1
2018-08-11T06:37:22.857Z,1021.1
2018-08-11T06:38:24.597Z,1021.1
2018-08-11T06:39:26.332Z,1021.1
2018-08-11T06:40:28.084Z,1021.1
2018-08-11T06:41:29.784Z,1021.2
2018-08-11T06:42:31.481Z,1021.2
2018-08-11T06:43:33.188Z,1021.2
2018-08-11T06:44:34.885Z,1021.2
2018-08-11T06:45:36.605Z,1021.2
2018-08-11T06:46:38.343Z,1021.2
2018-08-11T06:47:40.060Z,1021.1
2018-08-11T06:48:41.750Z,1021.2
2018-08-11T06:49:43.459Z,1021.1
2018-08-11T06:50:45.184Z,1021.1
2018-08-11T06:51:46.887Z,1021.1
2018-08-11T06:52:48.627Z,1021.2
2018-08-11T06:53:50.322Z,1021.2
2018-08-11T06:54:52.010Z,1021.2
2018-08-11T06:55:53.710Z,1021.2
2018-08-11T06:56:55.436Z,1021.2
2018-08-11T06:57:57.141Z,1021.1
2018-08-11T06:58:58.832Z,1021.2
2018-08-11T07:00:00.545Z,1021.2
2018-08-11T07:01:02.242Z,1021.2
2018-08-11T07:02:03.960Z,1021.2
2018-08-11T07:03:05.685Z,1021.2
2018-08-11T07:04:07.498Z,1021.3
2018-08-11T07:05:09.136Z,1021.2
2018-08-11T07:06:10.854Z,1021.2
2018-08-11T07:07:12.577Z,1021.2
2018-08-11T07:08:14.264Z,1021.2
2018-08-11T07:09:15.944Z,1021.3
2018-08-11T07:10:17.648Z,1021.2
2018-08-11T07:11:19.372Z,1021.2
2018-08-11T07:12:21.073Z,1021.3
2018-08-11T07:13:22.783Z,1021.3
2018-08-11T07:14:24.518Z,1021.3
2018-08-11T07:15:26.218Z,1021.3
2018-08-11T07:16:27.976Z,1021.3
2018-08-11T07:17:29.670Z,1021.3
2018-08-11T07:18:31.356Z,1021.3
2018-08-11T07:19:33.077Z,1021.3
2018-08-11T07:20:34.788Z,1021.3
2018-08-11T07:21:36.514Z,1021.3
2018-08-11T07:22:38.232Z,1021.2
2018-08-11T07:23:39.946Z,1021.3
2018-08-11T07:24:41.674Z,1021.3
2018-08-11T07:25:43.395Z,1021.3
2018-08-11T07:26:45.096Z,1021.3
2018-08-11T07:27:46.781Z,1021.3
2018-08-11T07:28:48.488Z,1021.3
2018-08-11T07:29:50.204Z,1021.3
2018-08-11T07:30:51.892Z,1021.3
2018-08-11T07:31:53.632Z,1021.3
2018-08-11T07:32:55.403Z,1021.4
2018-08-11T07:33:57.110Z,1021.3
2018-08-11T07:34:58.797Z,1021.3
2018-08-11T07:36:00.537Z,1021.4
2018-08-11T07:37:02.214Z,1021.4
2018-08-11T07:38:03.922Z,1021.4
2018-08-11T07:39:05.649Z,1021.4
2018-08-11T07:40:07.360Z,1021.4
2018-08-11T07:41:09.069Z,1021.4
2018-08-11T07:42:10.817Z,1021.4
2018-08-11T07:43:12.552Z,1021.4
2018-08-11T07:44:14.244Z,1021.4
2018-08-11T07:45:15.965Z,1021.4
2018-08-11T07:46:17.659Z,1021.5
2018-08-11T07:47:19.343Z,1021.5
2018-08-11T07:48:21.110Z,1021.4
2018-08-11T07:49:22.800Z,1021.5
2018-08-11T07:50:24.556Z,1021.5
2018-08-11T07:51:26.217Z,1021.5
2018-08-11T07:52:27.950Z,1021.5
2018-08-11T07:53:29.669Z,1021.5
2018-08-11T07:54:31.342Z,1021.5
2018-08-11T07:55:33.065Z,1021.5
2018-08-11T07:56:34.766Z,1021.5
2018-08-11T07:57:36.504Z,1021.5
2018-08-11T07:58:38.183Z,1021.5
2018-08-11T07:59:39.890Z,1021.5
2018-08-11T08:00:41.565Z,1021.5
2018-08-11T08:01:43.271Z,1021.5
2018-08-11T08:02:44.971Z,1021.5
2018-08-11T08:03:46.667Z,1021.5
2018-08-11T08:04:48.372Z,1021.5
2018-08-11T08:05:50.090Z,1021.6
2018-08-11T08:06:51.804Z,1021.5
2018-08-11T08:07:53.567Z,1021.6
2018-08-11T08:08:55.244Z,1021.5
2018-08-11T08:09:56.958Z,1021.5
2018-08-11T08:10:58.640Z,1021.5
2018-08-11T08:12:00.335Z,1021.6
2018-08-11T08:13:02.061Z,1021.5
2018-08-11T08:14:03.770Z,1021.6
2018-08-11T08:15:05.476Z,1021.6
2018-08-11T08:16:07.165Z,1021.6
2018-08-11T08:17:08.877Z,1021.6
2018-08-11T08:18:10.583Z,1021.6
2018-08-11T08:19:12.279Z,1021.6
2018-08-11T08:20:14.001Z,1021.6
2018-08-11T08:21:15.693Z,1021.6
2018-08-11T08:22:17.382Z,1021.6
2018-08-11T08:23:19.079Z,1021.6
2018-08-11T08:24:20.780Z,1021.6
2018-08-11T08:25:22.509Z,1021.6
2018-08-11T08:26:24.387Z,1021.6
2018-08-11T08:27:25.980Z,1021.6
2018-08-11T08:28:27.724Z,1021.6
2018-08-11T08:29:29.465Z,1021.6
2018-08-11T08:30:31.205Z,1021.6
2018-08-11T08:31:32.929Z,1021.5
2018-08-11T08:32:34.662Z,1021.6
2018-08-11T08:33:36.396Z,1021.6
2018-08-11T08:34:38.130Z,1021.6
2018-08-11T08:35:39.869Z,1021.6
2018-08-11T08:36:41.616Z,1021.6
2018-08-11T08:37:43.375Z,1021.5
2018-08-11T08:38:45.101Z,1021.6
2018-08-11T08:39:46.839Z,1021.5
2018-08-11T08:40:48.574Z,1021.5
2018-08-11T08:41:50.325Z,1021.5
2018-08-11T08:42:52.045Z,1021.5
2018-08-11T08:43:53.785Z,1021.4
2018-08-11T08:44:55.505Z,1021.4
2018-08-11T08:45:57.211Z,1021.4
2018-08-11T08:46:58.946Z,1021.4
2018-08-11T08:48:00.633Z,1021.4
2018-08-11T08:49:02.362Z,1021.4
2018-08-11T08:50:04.090Z,1021.4
2018-08-11T08:51:05.794Z,1021.4
2018-08-11T08:52:07.536Z,1021.4
2018-08-11T08:53:09.258Z,1021.4
2018-08-11T08:54:10.941Z,1021.4
2018-08-11T08:55:12.627Z,1021.4
2018-08-11T08:56:14.333Z,1021.4
2018-08-11T08:57:16.043Z,1021.4
2018-08-11T08:58:17.747Z,1021.4
2018-08-11T08:59:19.455Z,1021.4
2018-08-11T09:00:21.152Z,1021.4
2018-08-11T09:01:22.865Z,1021.4
2018-08-11T09:02:24.584Z,1021.4
2018-08-11T09:03:26.324Z,1021.4
2018-08-11T09:04:28.054Z,1021.5
2018-08-11T09:05:29.810Z,1021.5
2018-08-11T09:06:31.512Z,1021.4
2018-08-11T09:07:33.214Z,1021.5
2018-08-11T09:08:34.920Z,1021.4
2018-08-11T09:09:36.642Z,1021.4
2018-08-11T09:10:38.356Z,1021.4
2018-08-11T09:11:40.105Z,1021.5
2018-08-11T09:12:41.801Z,1021.5
2018-08-11T09:13:43.507Z,1021.4
2018-08-11T09:14:45.224Z,1021.5
2018-08-11T09:15:46.923Z,1021.5
2018-08-11T09:16:48.614Z,1021.5
2018-08-11T09:17:50.312Z,1021.4
2018-08-11T09:18:52.021Z,1021.5
2018-08-11T09:19:53.696Z,1021.5
2018-08-11T09:20:55.389Z,1021.5
2018-08-11T09:21:57.116Z,1021.5
2018-08-11T09:22:58.812Z,1021.6
2018-08-11T09:24:00.503Z,1021.5
2018-08-11T09:25:02.256Z,1021.5
2018-08-11T09:26:03.944Z,1021.4
2018-08-11T09:27:05.646Z,1021.4
2018-08-11T09:28:07.384Z,1021.4
2018-08-11T09:29:09.141Z,1021.4
2018-08-11T09:30:10.788Z,1021.4
2018-08-11T09:31:12.481Z,1021.4
2018-08-11T09:32:14.171Z,1021.3
2018-08-11T09:33:15.908Z,1021.3
2018-08-11T09:34:17.663Z,1021.4
2018-08-11T09:35:19.388Z,1021.3
2018-08-11T09:36:21.112Z,1021.3
2018-08-11T09:37:22.810Z,1021.3
2018-08-11T09:38:24.526Z,1021.3
2018-08-11T09:39:26.222Z,1021.3
2018-08-11T09:40:27.957Z,1021.3
2018-08-11T09:41:29.657Z,1021.4
2018-08-11T09:42:31.345Z,1021.3
2018-08-11T09:43:33.041Z,1021.3
2018-08-11T09:44:34.781Z,1021.3
2018-08-11T09:45:36.556Z,1021.3
2018-08-11T09:46:38.250Z,1021.3
2018-08-11T09:47:39.964Z,1021.3
2018-08-11T09:48:41.689Z,1021.4
2018-08-11T09:49:43.395Z,1021.4
2018-08-11T09:50:45.092Z,1021.4
2018-08-11T09:51:46.816Z,1021.4
2018-08-11T09:52:48.520Z,1021.3
2018-08-11T09:53:50.275Z,1021.3
2018-08-11T09:54:51.986Z,1021.4
2018-08-11T09:55:53.688Z,1021.4
2018-08-11T09:56:55.386Z,1021.3
2018-08-11T09:57:57.093Z,1021.4
2018-08-11T09:58:58.838Z,1021.4
2018-08-11T10:00:00.544Z,1021.3
2018-08-11T10:01:02.288Z,1021.3
2018-08-11T10:02:04.027Z,1021.3
2018-08-11T10:03:05.720Z,1021.4
2018-08-11T10:04:07.436Z,1021.4
2018-08-11T10:05:09.266Z,1021.4
2018-08-11T10:06:10.957Z,1021.4
2018-08-11T10:07:12.677Z,1021.3
2018-08-11T10:08:14.380Z,1021.3
2018-08-11T10:09:16.083Z,1021.3
2018-08-11T10:10:17.775Z,1021.3
2018-08-11T10:11:19.483Z,1021.3
2018-08-11T10:12:21.184Z,1021.3
2018-08-11T10:13:22.897Z,1021.3
2018-08-11T10:14:24.612Z,1021.3
2018-08-11T10:15:26.315Z,1021.2
2018-08-11T10:16:28.011Z,1021.2
2018-08-11T10:17:29.705Z,1021.3
2018-08-11T10:18:31.409Z,1021.3
2018-08-11T10:19:33.097Z,1021.3
2018-08-11T10:20:34.823Z,1021.3
2018-08-11T10:21:36.516Z,1021.3
2018-08-11T10:22:38.244Z,1021.3
2018-08-11T10:23:39.957Z,1021.3
2018-08-11T10:24:41.677Z,1021.3
2018-08-11T10:25:43.404Z,1021.3
2018-08-11T10:26:45.106Z,1021.3
2018-08-11T10:27:46.808Z,1021.3
2018-08-11T10:28:48.570Z,1021.3
2018-08-11T10:29:50.269Z,1021.3
2018-08-11T10:30:51.958Z,1021.3
2018-08-11T10:31:53.658Z,1021.3
2018-08-11T10:32:55.399Z,1021.3
2018-08-11T10:33:57.114Z,1021.3
2018-08-11T10:34:58.847Z,1021.2
2018-08-11T10:36:00.539Z,1021.3
2018-08-11T10:37:02.245Z,1021.3
2018-08-11T10:38:03.961Z,1021.2
2018-08-11T10:39:05.676Z,1021.2
2018-08-11T10:40:07.442Z,1021.2
2018-08-11T10:41:09.123Z,1021.2
2018-08-11T10:42:10.843Z,1021.2
2018-08-11T10:43:12.565Z,1021.2
2018-08-11T10:44:14.289Z,1021.3
2018-08-11T10:45:16.018Z,1021.3
2018-08-11T10:46:17.743Z,1021.3
2018-08-11T10:47:19.450Z,1021.3
2018-08-11T10:48:21.184Z,1021.2
2018-08-11T10:49:22.921Z,1021.2
2018-08-11T10:50:24.646Z,1021.2
2018-08-11T10:51:26.365Z,1021.2
2018-08-11T10:52:28.084Z,1021.2
2018-08-11T10:53:29.804Z,1021.2
2018-08-11T10:54:31.536Z,1021.2
2018-08-11T10:55:33.245Z,1021.2
2018-08-11T10:56:34.937Z,1021.2
2018-08-11T10:57:36.639Z,1021.3
2018-08-11T10:58:38.324Z,1021.2
2018-08-11T10:59:40.037Z,1021.2
2018-08-11T11:00:41.768Z,1021.2
2018-08-11T11:01:43.507Z,1021.3
2018-08-11T11:02:45.222Z,1021.2
2018-08-11T11:03:47.012Z,1021.2
2018-08-11T11:04:48.736Z,1021.2
2018-08-11T11:05:50.465Z,1021.2
2018-08-11T11:06:52.204Z,1021.2
2018-08-11T11:07:53.911Z,1021.2
2018-08-11T11:08:55.643Z,1021.2
2018-08-11T11:09:57.340Z,1021.2
2018-08-11T11:10:59.076Z,1021.2
2018-08-11T11:12:00.792Z,1021.2
2018-08-11T11:13:02.516Z,1021.2
2018-08-11T11:14:04.205Z,1021.2
2018-08-11T11:15:05.937Z,1021.2
2018-08-11T11:16:07.624Z,1021.2
2018-08-11T11:17:09.351Z,1021.2
2018-08-11T11:18:11.043Z,1021.2
2018-08-11T11:19:12.809Z,1021.2
2018-08-11T11:20:14.537Z,1021.2
2018-08-11T11:21:16.248Z,1021.2
2018-08-11T11:22:17.967Z,1021.2
2018-08-11T11:23:19.657Z,1021.2
2018-08-11T11:24:21.347Z,1021.2
2018-08-11T11:25:23.051Z,1021.2
2018-08-11T11:26:24.773Z,1021.2
2018-08-11T11:27:26.481Z,1021.1
2018-08-11T11:28:28.208Z,1021.2
2018-08-11T11:29:29.919Z,1021.2
2018-08-11T11:30:31.622Z,1021.2
2018-08-11T11:31:33.347Z,1021.2
2018-08-11T11:32:35.085Z,1021.2
2018-08-11T11:33:36.810Z,1021.2
2018-08-11T11:34:38.500Z,1021.1
2018-08-11T11:35:40.230Z,1021.1
2018-08-11T11:36:41.934Z,1021.1
2018-08-11T11:37:43.661Z,1021.0
2018-08-11T11:38:45.395Z,1021.0
2018-08-11T11:39:47.120Z,1021.0
2018-08-11T11:40:48.812Z,1021.0
2018-08-11T11:41:50.505Z,1021.0
2018-08-11T11:42:52.238Z,1020.9
2018-08-11T11:43:53.952Z,1020.9
2018-08-11T11:44:55.660Z,1021.0
2018-08-11T11:45:57.358Z,1020.9
2018-08-11T11:46:59.057Z,1020.9
2018-08-11T11:48:00.752Z,1020.9
2018-08-11T11:49:02.451Z,1020.9
2018-08-11T11:50:04.192Z,1021.0
2018-08-11T11:51:05.928Z,1021.0
2018-08-11T11:52:07.629Z,1021.0
2018-08-11T11:53:09.336Z,1021.0
2018-08-11T11:54:11.039Z,1020.9
2018-08-11T11:55:12.753Z,1020.9
2018-08-11T11:56:14.452Z,1020.9
2018-08-11T11:57:16.146Z,1020.9
2018-08-11T11:58:17.865Z,1020.9
2018-08-11T11:59:19.586Z,1020.9
2018-08-11T12:00:21.309Z,1020.9
2018-08-11T12:01:23.001Z,1020.9
2018-08-11T12:02:24.736Z,1020.9
2018-08-11T12:03:26.456Z,1020.9
2018-08-11T12:04:28.151Z,1020.9
2018-08-11T12:05:29.849Z,1020.9
2018-08-11T12:06:31.542Z,1020.9
2018-08-11T12:07:33.240Z,1020.9
2018-08-11T12:08:34.953Z,1020.9
2018-08-11T12:09:36.688Z,1021.0
2018-08-11T12:10:38.380Z,1021.0
2018-08-11T12:11:40.090Z,1020.9
2018-08-11T12:12:41.818Z,1021.0
2018-08-11T12:13:43.526Z,1021.1
2018-08-11T12:14:46.141Z,1021.3
2018-08-11T12:15:47.853Z,1021.6
2018-08-11T12:16:49.594Z,1021.8
2018-08-11T12:17:51.334Z,1021.8
2018-08-11T12:18:53.062Z,1021.8
2018-08-11T12:19:54.789Z,1021.8
2018-08-11T12:20:56.532Z,1021.8
2018-08-11T12:21:58.286Z,1021.8
2018-08-11T12:23:00.026Z,1021.8
2018-08-11T12:24:01.731Z,1021.7
2018-08-11T12:25:03.447Z,1021.7
2018-08-11T12:26:05.190Z,1021.8
2018-08-11T12:27:06.922Z,1021.8
2018-08-11T12:28:08.662Z,1021.7
2018-08-11T12:29:10.385Z,1021.8
2018-08-11T12:30:12.092Z,1021.8
2018-08-11T12:31:13.914Z,1021.9
2018-08-11T12:32:15.554Z,1021.9
2018-08-11T12:33:17.339Z,1021.9
2018-08-11T12:34:19.089Z,1021.9
2018-08-11T12:35:20.813Z,1021.9
2018-08-11T12:36:22.532Z,1021.9
2018-08-11T12:37:24.255Z,1021.9
2018-08-11T12:38:26.002Z,1022.0
2018-08-11T12:39:27.716Z,1022.0
2018-08-11T12:40:29.459Z,1022.0
2018-08-11T12:41:31.204Z,1021.9
2018-08-11T12:42:32.911Z,1021.9
2018-08-11T12:43:34.655Z,1021.9
2018-08-11T12:44:36.395Z,1021.9
2018-08-11T12:45:38.150Z,1022.0
2018-08-11T12:46:39.903Z,1021.9
2018-08-11T12:47:41.657Z,1021.9
2018-08-11T12:48:43.423Z,1021.9
2018-08-11T12:49:45.157Z,1021.9